sensor_id;sensor_type;location;lat;lon;timestamp;pressure;altitude;pressure_sealevel;temperature;humidity
80198;BME280;69517;52.030;7.106;2023-06-19T00:01:23;100023.34;;;24.10;76.72
80198;BME280;69517;52.030;7.106;2023-06-19T00:03:50;100019.75;;;24.11;76.33
80198;BME280;69517;52.030;7.106;2023-06-19T00:06:17;100027.78;;;24.10;76.75
80198;BME280;69517;52.030;7.106;2023-06-19T00:08:44;100019.88;;;24.10;76.52
80198;BME280;69517;52.030;7.106;2023-06-19T00:11:10;100023.34;;;24.10;76.41
80198;BME280;69517;52.030;7.106;2023-06-19T00:13:36;100020.88;;;24.09;76.60
80198;BME280;69517;52.030;7.106;2023-06-19T00:16:02;100022.50;;;24.10;76.43
80198;BME280;69517;52.030;7.106;2023-06-19T00:18:29;100015.59;;;24.09;76.51
80198;BME280;69517;52.030;7.106;2023-06-19T00:20:55;100012.94;;;24.09;76.33
80198;BME280;69517;52.030;7.106;2023-06-19T00:23:23;100007.66;;;24.09;76.70
80198;BME280;69517;52.030;7.106;2023-06-19T00:25:49;100014.75;;;24.08;76.39
80198;BME280;69517;52.030;7.106;2023-06-19T00:28:15;100003.34;;;24.08;76.36
80198;BME280;69517;52.030;7.106;2023-06-19T00:30:44;100004.03;;;24.10;76.44
80198;BME280;69517;52.030;7.106;2023-06-19T00:33:11;100008.63;;;24.08;76.65
80198;BME280;69517;52.030;7.106;2023-06-19T00:35:37;100011.28;;;24.08;76.52
80198;BME280;69517;52.030;7.106;2023-06-19T00:38:04;100013.75;;;24.09;76.46
80198;BME280;69517;52.030;7.106;2023-06-19T00:40:32;100020.88;;;24.09;76.41
80198;BME280;69517;52.030;7.106;2023-06-19T00:42:59;100029.75;;;24.08;76.36
80198;BME280;69517;52.030;7.106;2023-06-19T00:45:26;100019.19;;;24.08;76.45
80198;BME280;69517;52.030;7.106;2023-06-19T00:47:53;100020.03;;;24.08;76.29
80198;BME280;69517;52.030;7.106;2023-06-19T00:50:20;100023.50;;;24.09;76.43
80198;BME280;69517;52.030;7.106;2023-06-19T00:52:47;100022.81;;;24.07;76.59
80198;BME280;69517;52.030;7.106;2023-06-19T00:55:13;100025.31;;;24.08;76.49
80198;BME280;69517;52.030;7.106;2023-06-19T00:57:42;100019.19;;;24.08;76.33
80198;BME280;69517;52.030;7.106;2023-06-19T01:00:09;100022.69;;;24.08;76.14
80198;BME280;69517;52.030;7.106;2023-06-19T01:02:37;100028.94;;;24.07;76.30
80198;BME280;69517;52.030;7.106;2023-06-19T01:05:04;100027.13;;;24.08;76.08
80198;BME280;69517;52.030;7.106;2023-06-19T01:07:32;100035.03;;;24.08;76.25
80198;BME280;69517;52.030;7.106;2023-06-19T01:10:05;100040.31;;;24.08;76.14
80198;BME280;69517;52.030;7.106;2023-06-19T01:12:34;100047.41;;;24.07;76.17
80198;BME280;69517;52.030;7.106;2023-06-19T01:15:03;100037.69;;;24.08;76.30
80198;BME280;69517;52.030;7.106;2023-06-19T01:17:31;100034.22;;;24.07;76.21
80198;BME280;69517;52.030;7.106;2023-06-19T01:19:58;100037.69;;;24.08;76.22
80198;BME280;69517;52.030;7.106;2023-06-19T01:22:26;100040.31;;;24.08;76.17
80198;BME280;69517;52.030;7.106;2023-06-19T01:24:53;100038.66;;;24.07;76.27
80198;BME280;69517;52.030;7.106;2023-06-19T01:27:19;100038.66;;;24.07;76.36
80198;BME280;69517;52.030;7.106;2023-06-19T01:29:45;100029.06;;;24.06;76.05
80198;BME280;69517;52.030;7.106;2023-06-19T01:32:13;100031.69;;;24.06;76.35
80198;BME280;69517;52.030;7.106;2023-06-19T01:34:41;100028.09;;;24.07;76.55
80198;BME280;69517;52.030;7.106;2023-06-19T01:37:07;100039.63;;;24.06;76.42
80198;BME280;69517;52.030;7.106;2023-06-19T01:39:37;100034.34;;;24.06;76.17
80198;BME280;69517;52.030;7.106;2023-06-19T01:42:05;100036.00;;;24.07;76.32
80198;BME280;69517;52.030;7.106;2023-06-19T01:44:34;100030.88;;;24.05;75.97
80198;BME280;69517;52.030;7.106;2023-06-19T01:47:06;100033.50;;;24.05;76.14
80198;BME280;69517;52.030;7.106;2023-06-19T01:49:33;100036.00;;;24.07;76.12
80198;BME280;69517;52.030;7.106;2023-06-19T01:51:59;100035.19;;;24.06;76.01
80198;BME280;69517;52.030;7.106;2023-06-19T01:54:25;100032.53;;;24.06;76.06
80198;BME280;69517;52.030;7.106;2023-06-19T01:56:54;100036.16;;;24.05;75.98
80198;BME280;69517;52.030;7.106;2023-06-19T01:59:20;100034.34;;;24.06;76.33
80198;BME280;69517;52.030;7.106;2023-06-19T02:01:47;100039.63;;;24.06;75.92
80198;BME280;69517;52.030;7.106;2023-06-19T02:04:13;100036.16;;;24.05;75.94
80198;BME280;69517;52.030;7.106;2023-06-19T02:06:39;100038.78;;;24.05;76.33
80198;BME280;69517;52.030;7.106;2023-06-19T02:09:06;100039.63;;;24.06;75.99
80198;BME280;69517;52.030;7.106;2023-06-19T02:11:33;100041.44;;;24.05;76.20
80198;BME280;69517;52.030;7.106;2023-06-19T02:14:00;100037.94;;;24.05;76.23
80198;BME280;69517;52.030;7.106;2023-06-19T02:16:26;100036.97;;;24.06;76.00
80198;BME280;69517;52.030;7.106;2023-06-19T02:18:53;100042.41;;;24.04;76.26
80198;BME280;69517;52.030;7.106;2023-06-19T02:21:20;100045.88;;;24.05;76.04
80198;BME280;69517;52.030;7.106;2023-06-19T02:23:46;100043.38;;;24.03;75.90
80198;BME280;69517;52.030;7.106;2023-06-19T02:26:13;100045.03;;;24.04;75.87
80198;BME280;69517;52.030;7.106;2023-06-19T02:28:39;100041.56;;;24.04;76.15
80198;BME280;69517;52.030;7.106;2023-06-19T02:31:07;100049.34;;;24.05;75.87
80198;BME280;69517;52.030;7.106;2023-06-19T02:33:33;100052.13;;;24.04;75.77
80198;BME280;69517;52.030;7.106;2023-06-19T02:35:59;100058.09;;;24.06;75.85
80198;BME280;69517;52.030;7.106;2023-06-19T02:38:26;100046.84;;;24.04;75.88
80198;BME280;69517;52.030;7.106;2023-06-19T02:40:54;100053.78;;;24.05;75.98
80198;BME280;69517;52.030;7.106;2023-06-19T02:43:22;100049.47;;;24.04;76.04
80198;BME280;69517;52.030;7.106;2023-06-19T02:45:48;100050.31;;;24.04;75.90
80198;BME280;69517;52.030;7.106;2023-06-19T02:48:16;100054.75;;;24.04;75.83
80198;BME280;69517;52.030;7.106;2023-06-19T02:50:42;100060.03;;;24.04;75.98
80198;BME280;69517;52.030;7.106;2023-06-19T02:53:09;100060.03;;;24.04;75.89
80198;BME280;69517;52.030;7.106;2023-06-19T02:55:36;100064.47;;;24.03;75.93
80198;BME280;69517;52.030;7.106;2023-06-19T02:58:02;100066.16;;;24.04;76.12
80198;BME280;69517;52.030;7.106;2023-06-19T03:00:28;100060.03;;;24.04;75.84
80198;BME280;69517;52.030;7.106;2023-06-19T03:02:55;100061.84;;;24.03;75.80
80198;BME280;69517;52.030;7.106;2023-06-19T03:05:22;100065.31;;;24.04;76.10
80198;BME280;69517;52.030;7.106;2023-06-19T03:07:48;100071.44;;;24.04;75.87
80198;BME280;69517;52.030;7.106;2023-06-19T03:10:15;100072.41;;;24.03;75.86
80198;BME280;69517;52.030;7.106;2023-06-19T03:12:41;100075.03;;;24.03;75.80
80198;BME280;69517;52.030;7.106;2023-06-19T03:15:08;100080.31;;;24.03;75.95
80198;BME280;69517;52.030;7.106;2023-06-19T03:17:34;100071.59;;;24.03;75.79
80198;BME280;69517;52.030;7.106;2023-06-19T03:20:00;100074.25;;;24.03;75.68
80198;BME280;69517;52.030;7.106;2023-06-19T03:22:32;100077.69;;;24.03;75.92
80198;BME280;69517;52.030;7.106;2023-06-19T03:24:58;100083.13;;;24.02;76.05
80198;BME280;69517;52.030;7.106;2023-06-19T03:27:24;100079.53;;;24.03;75.77
80198;BME280;69517;52.030;7.106;2023-06-19T03:29:52;100089.09;;;24.04;75.96
80198;BME280;69517;52.030;7.106;2023-06-19T03:32:18;100090.88;;;24.03;75.67
80198;BME280;69517;52.030;7.106;2023-06-19T03:34:45;100092.72;;;24.03;75.66
80198;BME280;69517;52.030;7.106;2023-06-19T03:37:11;100085.78;;;24.02;75.74
80198;BME280;69517;52.030;7.106;2023-06-19T03:39:39;100088.41;;;24.02;75.56
80198;BME280;69517;52.030;7.106;2023-06-19T03:42:05;100102.59;;;24.01;75.97
80198;BME280;69517;52.030;7.106;2023-06-19T03:44:31;100099.94;;;24.01;76.07
80198;BME280;69517;52.030;7.106;2023-06-19T03:46:58;100096.47;;;24.00;75.71
80198;BME280;69517;52.030;7.106;2023-06-19T03:49:24;100107.03;;;24.00;75.78
80198;BME280;69517;52.030;7.106;2023-06-19T03:51:51;100113.16;;;24.01;75.59
80198;BME280;69517;52.030;7.106;2023-06-19T03:54:19;100102.59;;;24.01;75.61
80198;BME280;69517;52.030;7.106;2023-06-19T03:56:47;100117.59;;;24.00;75.58
80198;BME280;69517;52.030;7.106;2023-06-19T03:59:13;100108.69;;;24.01;75.63
80198;BME280;69517;52.030;7.106;2023-06-19T04:01:39;100109.66;;;24.00;75.83
80198;BME280;69517;52.030;7.106;2023-06-19T04:04:06;100116.63;;;24.01;75.79
80198;BME280;69517;52.030;7.106;2023-06-19T04:06:32;100116.75;;;24.00;76.06
80198;BME280;69517;52.030;7.106;2023-06-19T04:08:59;100121.91;;;24.01;75.63
80198;BME280;69517;52.030;7.106;2023-06-19T04:11:26;100121.06;;;24.01;76.00
80198;BME280;69517;52.030;7.106;2023-06-19T04:13:53;100120.22;;;24.00;75.50
80198;BME280;69517;52.030;7.106;2023-06-19T04:16:19;100122.88;;;24.00;75.86
80198;BME280;69517;52.030;7.106;2023-06-19T04:18:46;100127.31;;;24.00;75.51
80198;BME280;69517;52.030;7.106;2023-06-19T04:21:13;100129.81;;;24.01;75.57
80198;BME280;69517;52.030;7.106;2023-06-19T04:23:39;100132.59;;;24.00;75.34
80198;BME280;69517;52.030;7.106;2023-06-19T04:26:05;100143.16;;;24.00;75.43
80198;BME280;69517;52.030;7.106;2023-06-19T04:28:32;100138.84;;;23.99;75.61
80198;BME280;69517;52.030;7.106;2023-06-19T04:30:59;100130.91;;;23.99;75.43
80198;BME280;69517;52.030;7.106;2023-06-19T04:33:26;100139.69;;;23.99;75.51
80198;BME280;69517;52.030;7.106;2023-06-19T04:35:52;100140.50;;;24.00;75.50
80198;BME280;69517;52.030;7.106;2023-06-19T04:38:18;100146.75;;;23.99;75.38
80198;BME280;69517;52.030;7.106;2023-06-19T04:40:48;100156.34;;;24.00;75.51
80198;BME280;69517;52.030;7.106;2023-06-19T04:43:14;100161.78;;;23.98;75.36
80198;BME280;69517;52.030;7.106;2023-06-19T04:45:41;100155.66;;;23.98;75.41
80198;BME280;69517;52.030;7.106;2023-06-19T04:48:08;100156.78;;;23.95;75.24
80198;BME280;69517;52.030;7.106;2023-06-19T04:50:35;100163.56;;;23.98;75.21
80198;BME280;69517;52.030;7.106;2023-06-19T04:53:01;100172.75;;;23.94;75.74
80198;BME280;69517;52.030;7.106;2023-06-19T04:55:27;100178.03;;;23.94;75.76
80198;BME280;69517;52.030;7.106;2023-06-19T04:57:54;100182.84;;;23.79;75.24
80198;BME280;69517;52.030;7.106;2023-06-19T05:00:20;100191.03;;;23.66;75.52
80198;BME280;69517;52.030;7.106;2023-06-19T05:02:48;100191.56;;;23.60;75.90
80198;BME280;69517;52.030;7.106;2023-06-19T05:05:16;100202.47;;;23.56;76.25
80198;BME280;69517;52.030;7.106;2023-06-19T05:07:42;100199.00;;;23.55;76.37
80198;BME280;69517;52.030;7.106;2023-06-19T05:10:10;100202.88;;;23.51;76.76
80198;BME280;69517;52.030;7.106;2023-06-19T05:12:36;100199.28;;;23.52;77.18
80198;BME280;69517;52.030;7.106;2023-06-19T05:15:03;100201.59;;;23.45;77.02
80198;BME280;69517;52.030;7.106;2023-06-19T05:17:29;100206.63;;;23.49;77.12
80198;BME280;69517;52.030;7.106;2023-06-19T05:19:55;100211.09;;;23.48;77.95
80198;BME280;69517;52.030;7.106;2023-06-19T05:22:23;100218.72;;;23.51;77.44
80198;BME280;69517;52.030;7.106;2023-06-19T05:24:49;100218.19;;;23.57;77.64
80198;BME280;69517;52.030;7.106;2023-06-19T05:27:15;100221.78;;;23.56;77.86
80198;BME280;69517;52.030;7.106;2023-06-19T05:29:42;100208.59;;;23.56;78.04
80198;BME280;69517;52.030;7.106;2023-06-19T05:32:08;100207.38;;;23.60;77.48
80198;BME280;69517;52.030;7.106;2023-06-19T05:34:34;100209.56;;;23.55;78.33
80198;BME280;69517;52.030;7.106;2023-06-19T05:37:00;100205.72;;;23.59;78.24
80198;BME280;69517;52.030;7.106;2023-06-19T05:39:30;100210.25;;;23.48;78.38
80198;BME280;69517;52.030;7.106;2023-06-19T05:41:56;100209.25;;;23.49;78.71
80198;BME280;69517;52.030;7.106;2023-06-19T05:44:22;100212.19;;;23.55;78.64
80198;BME280;69517;52.030;7.106;2023-06-19T05:46:48;100216.09;;;23.51;79.22
80198;BME280;69517;52.030;7.106;2023-06-19T05:49:15;100220.13;;;23.55;78.94
80198;BME280;69517;52.030;7.106;2023-06-19T05:51:41;100225.44;;;23.44;79.21
80198;BME280;69517;52.030;7.106;2023-06-19T05:54:08;100227.72;;;23.49;79.44
80198;BME280;69517;52.030;7.106;2023-06-19T05:56:36;100231.34;;;23.48;79.04
80198;BME280;69517;52.030;7.106;2023-06-19T05:59:02;100237.63;;;23.56;78.70
80198;BME280;69517;52.030;7.106;2023-06-19T06:01:28;100242.38;;;23.62;77.90
80198;BME280;69517;52.030;7.106;2023-06-19T06:03:55;100253.53;;;23.66;77.64
80198;BME280;69517;52.030;7.106;2023-06-19T06:06:22;100247.13;;;23.68;77.44
80198;BME280;69517;52.030;7.106;2023-06-19T06:08:48;100244.25;;;23.71;77.25
80198;BME280;69517;52.030;7.106;2023-06-19T06:11:16;100250.47;;;23.70;78.21
80198;BME280;69517;52.030;7.106;2023-06-19T06:13:43;100247.56;;;23.73;77.20
80198;BME280;69517;52.030;7.106;2023-06-19T06:16:10;100248.16;;;23.77;76.91
80198;BME280;69517;52.030;7.106;2023-06-19T06:18:36;100251.47;;;23.79;76.80
80198;BME280;69517;52.030;7.106;2023-06-19T06:21:02;100264.53;;;23.80;76.94
80198;BME280;69517;52.030;7.106;2023-06-19T06:23:29;100253.97;;;23.80;76.88
80198;BME280;69517;52.030;7.106;2023-06-19T06:25:55;100253.03;;;23.81;77.21
80198;BME280;69517;52.030;7.106;2023-06-19T06:28:27;100261.91;;;23.80;77.44
80198;BME280;69517;52.030;7.106;2023-06-19T06:30:55;100270.53;;;23.82;77.39
80198;BME280;69517;52.030;7.106;2023-06-19T06:33:21;100266.09;;;23.83;77.10
80198;BME280;69517;52.030;7.106;2023-06-19T06:35:47;100269.81;;;23.80;76.96
80198;BME280;69517;52.030;7.106;2023-06-19T06:38:14;100268.97;;;23.80;76.88
80198;BME280;69517;52.030;7.106;2023-06-19T06:40:40;100267.06;;;23.82;76.68
80198;BME280;69517;52.030;7.106;2023-06-19T06:43:06;100273.19;;;23.82;76.78
80198;BME280;69517;52.030;7.106;2023-06-19T06:45:32;100278.44;;;23.82;76.74
80198;BME280;69517;52.030;7.106;2023-06-19T06:48:00;100274.84;;;23.83;76.43
80198;BME280;69517;52.030;7.106;2023-06-19T06:50:26;100275.69;;;23.84;76.23
80198;BME280;69517;52.030;7.106;2023-06-19T06:52:53;100285.25;;;23.85;76.38
80198;BME280;69517;52.030;7.106;2023-06-19T06:55:19;100278.19;;;23.85;76.25
80198;BME280;69517;52.030;7.106;2023-06-19T06:57:45;100288.59;;;23.87;76.91
80198;BME280;69517;52.030;7.106;2023-06-19T07:00:12;100293.63;;;23.90;76.78
80198;BME280;69517;52.030;7.106;2023-06-19T07:02:38;100291.69;;;23.92;76.41
80198;BME280;69517;52.030;7.106;2023-06-19T07:05:08;100284.59;;;23.93;76.55
80198;BME280;69517;52.030;7.106;2023-06-19T07:07:34;100292.41;;;23.94;76.35
80198;BME280;69517;52.030;7.106;2023-06-19T07:10:00;100289.75;;;23.94;76.55
80198;BME280;69517;52.030;7.106;2023-06-19T07:12:27;100293.94;;;23.97;76.66
80198;BME280;69517;52.030;7.106;2023-06-19T07:14:53;100301.88;;;23.97;76.65
80198;BME280;69517;52.030;7.106;2023-06-19T07:17:19;100301.03;;;23.96;76.94
80198;BME280;69517;52.030;7.106;2023-06-19T07:19:46;100303.78;;;23.95;76.47
80198;BME280;69517;52.030;7.106;2023-06-19T07:22:13;100306.69;;;23.92;75.91
80198;BME280;69517;52.030;7.106;2023-06-19T07:24:40;100313.22;;;23.88;76.47
80198;BME280;69517;52.030;7.106;2023-06-19T07:27:06;100308.78;;;23.88;76.12
80198;BME280;69517;52.030;7.106;2023-06-19T07:29:32;100308.78;;;23.88;77.13
80198;BME280;69517;52.030;7.106;2023-06-19T07:31:58;100313.22;;;23.88;77.53
80198;BME280;69517;52.030;7.106;2023-06-19T07:34:27;100305.03;;;23.91;77.31
80198;BME280;69517;52.030;7.106;2023-06-19T07:36:53;100311.97;;;23.92;77.46
80198;BME280;69517;52.030;7.106;2023-06-19T07:39:21;100312.13;;;23.90;77.32
80198;BME280;69517;52.030;7.106;2023-06-19T07:41:48;100312.69;;;23.94;77.50
80198;BME280;69517;52.030;7.106;2023-06-19T07:44:14;100310.59;;;23.97;76.99
80198;BME280;69517;52.030;7.106;2023-06-19T07:46:43;100315.75;;;23.99;77.35
80198;BME280;69517;52.030;7.106;2023-06-19T07:49:09;100322.72;;;24.00;77.19
80198;BME280;69517;52.030;7.106;2023-06-19T07:51:35;100312.88;;;24.02;77.03
80198;BME280;69517;52.030;7.106;2023-06-19T07:54:01;100319.94;;;24.01;77.15
80198;BME280;69517;52.030;7.106;2023-06-19T07:56:29;100327.75;;;24.03;76.99
80198;BME280;69517;52.030;7.106;2023-06-19T07:58:56;100327.75;;;24.03;77.24
80198;BME280;69517;52.030;7.106;2023-06-19T08:01:23;100326.06;;;24.02;77.03
80198;BME280;69517;52.030;7.106;2023-06-19T08:03:49;100337.31;;;24.04;77.43
80198;BME280;69517;52.030;7.106;2023-06-19T08:06:15;100333.84;;;24.03;77.47
80198;BME280;69517;52.030;7.106;2023-06-19T08:08:41;100340.94;;;24.03;77.18
80198;BME280;69517;52.030;7.106;2023-06-19T08:11:08;100338.31;;;24.03;76.91
80198;BME280;69517;52.030;7.106;2023-06-19T08:13:35;100343.59;;;24.03;77.36
80198;BME280;69517;52.030;7.106;2023-06-19T08:16:01;100339.94;;;24.04;77.90
80198;BME280;69517;52.030;7.106;2023-06-19T08:18:28;100343.59;;;24.03;78.09
80198;BME280;69517;52.030;7.106;2023-06-19T08:20:54;100346.22;;;24.03;78.24
80198;BME280;69517;52.030;7.106;2023-06-19T08:23:20;100336.63;;;24.02;78.14
80198;BME280;69517;52.030;7.106;2023-06-19T08:25:46;100341.91;;;24.02;78.02
80198;BME280;69517;52.030;7.106;2023-06-19T08:28:13;100335.78;;;24.01;77.84
80198;BME280;69517;52.030;7.106;2023-06-19T08:30:40;100341.91;;;24.02;78.22
80198;BME280;69517;52.030;7.106;2023-06-19T08:33:07;100347.88;;;24.04;78.08
80198;BME280;69517;52.030;7.106;2023-06-19T08:35:33;100348.88;;;24.03;78.51
80198;BME280;69517;52.030;7.106;2023-06-19T08:38:00;100349.56;;;24.05;78.47
80198;BME280;69517;52.030;7.106;2023-06-19T08:40:26;100340.78;;;24.04;78.43
80198;BME280;69517;52.030;7.106;2023-06-19T08:42:52;100351.34;;;24.04;78.68
80198;BME280;69517;52.030;7.106;2023-06-19T08:45:20;100350.53;;;24.04;78.28
80198;BME280;69517;52.030;7.106;2023-06-19T08:47:48;100347.88;;;24.04;78.32
80198;BME280;69517;52.030;7.106;2023-06-19T08:50:14;100352.19;;;24.05;78.60
80198;BME280;69517;52.030;7.106;2023-06-19T08:52:41;100350.53;;;24.04;78.31
80198;BME280;69517;52.030;7.106;2023-06-19T08:55:07;100349.56;;;24.05;78.24
80198;BME280;69517;52.030;7.106;2023-06-19T08:57:34;100342.47;;;24.05;78.22
80198;BME280;69517;52.030;7.106;2023-06-19T09:00:00;100350.41;;;24.05;78.22
80198;BME280;69517;52.030;7.106;2023-06-19T09:02:36;100349.56;;;24.05;78.79
80198;BME280;69517;52.030;7.106;2023-06-19T09:05:09;100344.41;;;24.03;78.55
80198;BME280;69517;52.030;7.106;2023-06-19T09:07:36;100339.94;;;24.04;78.78
80198;BME280;69517;52.030;7.106;2023-06-19T09:10:10;100346.06;;;24.04;78.77
80198;BME280;69517;52.030;7.106;2023-06-19T09:12:37;100349.69;;;24.03;78.78
80198;BME280;69517;52.030;7.106;2023-06-19T09:15:11;100350.53;;;24.04;79.04
80198;BME280;69517;52.030;7.106;2023-06-19T09:17:37;100346.22;;;24.03;78.75
80198;BME280;69517;52.030;7.106;2023-06-19T09:20:04;100340.22;;;24.01;78.68
80198;BME280;69517;52.030;7.106;2023-06-19T09:22:32;100349.97;;;24.00;78.79
80198;BME280;69517;52.030;7.106;2023-06-19T09:24:59;100356.06;;;24.01;78.66
80198;BME280;69517;52.030;7.106;2023-06-19T09:27:31;100365.81;;;24.00;78.57
80198;BME280;69517;52.030;7.106;2023-06-19T09:29:57;100357.03;;;24.00;78.52
80198;BME280;69517;52.030;7.106;2023-06-19T09:32:24;100363.16;;;24.00;78.54
80198;BME280;69517;52.030;7.106;2023-06-19T09:34:51;100366.75;;;23.99;78.38
80198;BME280;69517;52.030;7.106;2023-06-19T09:37:18;100360.66;;;23.99;78.36
80198;BME280;69517;52.030;7.106;2023-06-19T09:39:48;100376.50;;;23.99;78.50
80198;BME280;69517;52.030;7.106;2023-06-19T09:42:20;100377.44;;;23.98;78.29
80198;BME280;69517;52.030;7.106;2023-06-19T09:44:49;100386.22;;;23.98;78.22
80198;BME280;69517;52.030;7.106;2023-06-19T09:47:17;100389.69;;;23.99;78.70
80198;BME280;69517;52.030;7.106;2023-06-19T09:49:47;100391.66;;;23.97;78.16
80198;BME280;69517;52.030;7.106;2023-06-19T09:52:14;100388.00;;;23.98;78.22
80198;BME280;69517;52.030;7.106;2023-06-19T09:54:41;100389.81;;;23.97;78.43
80198;BME280;69517;52.030;7.106;2023-06-19T09:57:10;100387.16;;;23.97;78.55
80198;BME280;69517;52.030;7.106;2023-06-19T09:59:36;100393.28;;;23.98;78.44
80198;BME280;69517;52.030;7.106;2023-06-19T10:02:04;100388.00;;;23.98;77.84
80198;BME280;69517;52.030;7.106;2023-06-19T10:04:41;100385.38;;;23.98;78.06
80198;BME280;69517;52.030;7.106;2023-06-19T10:07:14;100388.00;;;23.98;78.36
80198;BME280;69517;52.030;7.106;2023-06-19T10:09:41;100387.16;;;23.97;78.34
80198;BME280;69517;52.030;7.106;2023-06-19T10:12:12;100388.00;;;23.98;77.85
80198;BME280;69517;52.030;7.106;2023-06-19T10:14:44;100386.22;;;23.98;77.94
80198;BME280;69517;52.030;7.106;2023-06-19T10:17:12;100385.38;;;23.98;78.10
80198;BME280;69517;52.030;7.106;2023-06-19T10:19:38;100389.81;;;23.97;78.28
80198;BME280;69517;52.030;7.106;2023-06-19T10:22:18;100391.66;;;23.97;78.09
80198;BME280;69517;52.030;7.106;2023-06-19T10:24:48;100397.72;;;23.97;77.89
80198;BME280;69517;52.030;7.106;2023-06-19T10:27:20;100396.09;;;23.96;78.17
80198;BME280;69517;52.030;7.106;2023-06-19T10:29:51;100392.44;;;23.97;77.96
80198;BME280;69517;52.030;7.106;2023-06-19T10:32:17;100405.81;;;23.96;78.16
80198;BME280;69517;52.030;7.106;2023-06-19T10:34:45;100411.09;;;23.96;77.75
80198;BME280;69517;52.030;7.106;2023-06-19T10:37:11;100402.22;;;23.97;78.09
80198;BME280;69517;52.030;7.106;2023-06-19T10:39:37;100409.28;;;23.96;78.09
80198;BME280;69517;52.030;7.106;2023-06-19T10:42:05;100404.00;;;23.96;77.98
80198;BME280;69517;52.030;7.106;2023-06-19T10:44:33;100404.00;;;23.96;77.88
80198;BME280;69517;52.030;7.106;2023-06-19T10:46:59;100404.00;;;23.96;77.70
80198;BME280;69517;52.030;7.106;2023-06-19T10:49:26;100409.41;;;23.95;77.73
80198;BME280;69517;52.030;7.106;2023-06-19T10:51:53;100411.09;;;23.96;77.72
80198;BME280;69517;52.030;7.106;2023-06-19T10:54:23;100403.16;;;23.96;77.72
80198;BME280;69517;52.030;7.106;2023-06-19T10:56:50;100410.13;;;23.97;77.59
80198;BME280;69517;52.030;7.106;2023-06-19T10:59:16;100415.41;;;23.97;78.03
80198;BME280;69517;52.030;7.106;2023-06-19T11:01:45;100403.16;;;23.96;77.63
80198;BME280;69517;52.030;7.106;2023-06-19T11:04:12;100398.00;;;23.94;77.54
80198;BME280;69517;52.030;7.106;2023-06-19T11:06:40;100404.13;;;23.95;77.85
80198;BME280;69517;52.030;7.106;2023-06-19T11:09:06;100395.25;;;23.96;77.66
80198;BME280;69517;52.030;7.106;2023-06-19T11:11:37;100400.53;;;23.96;77.50
80198;BME280;69517;52.030;7.106;2023-06-19T11:14:03;100404.97;;;23.95;77.39
80198;BME280;69517;52.030;7.106;2023-06-19T11:16:30;100404.97;;;23.95;77.42
80198;BME280;69517;52.030;7.106;2023-06-19T11:18:58;100405.81;;;23.96;77.55
80198;BME280;69517;52.030;7.106;2023-06-19T11:21:29;100399.69;;;23.95;77.39
80198;BME280;69517;52.030;7.106;2023-06-19T11:23:57;100398.84;;;23.95;77.61
80198;BME280;69517;52.030;7.106;2023-06-19T11:26:24;100404.13;;;23.95;77.75
80198;BME280;69517;52.030;7.106;2023-06-19T11:28:52;100402.44;;;23.94;77.55
80198;BME280;69517;52.030;7.106;2023-06-19T11:31:24;100398.00;;;23.94;77.42
80198;BME280;69517;52.030;7.106;2023-06-19T11:33:55;100390.94;;;23.95;77.44
80198;BME280;69517;52.030;7.106;2023-06-19T11:36:22;100388.28;;;23.95;77.41
80198;BME280;69517;52.030;7.106;2023-06-19T11:38:49;100398.84;;;23.95;77.79
80198;BME280;69517;52.030;7.106;2023-06-19T11:41:24;100397.06;;;23.95;77.45
80198;BME280;69517;52.030;7.106;2023-06-19T11:43:51;100399.69;;;23.95;77.73
80198;BME280;69517;52.030;7.106;2023-06-19T11:46:27;100389.97;;;23.96;77.46
80198;BME280;69517;52.030;7.106;2023-06-19T11:48:54;100387.31;;;23.96;77.64
80198;BME280;69517;52.030;7.106;2023-06-19T11:51:21;100381.22;;;23.95;77.58
80198;BME280;69517;52.030;7.106;2023-06-19T11:53:48;100384.69;;;23.96;77.62
80198;BME280;69517;52.030;7.106;2023-06-19T11:56:14;100397.88;;;23.96;77.33
80198;BME280;69517;52.030;7.106;2023-06-19T11:58:41;100400.53;;;23.96;77.68
80198;BME280;69517;52.030;7.106;2023-06-19T12:01:10;100387.44;;;23.94;77.39
80198;BME280;69517;52.030;7.106;2023-06-19T12:03:36;100389.13;;;23.95;77.54
80198;BME280;69517;52.030;7.106;2023-06-19T12:06:02;100396.09;;;23.96;77.26
80198;BME280;69517;52.030;7.106;2023-06-19T12:08:28;100402.22;;;23.97;77.17
80198;BME280;69517;52.030;7.106;2023-06-19T12:10:56;100409.13;;;23.98;77.09
80198;BME280;69517;52.030;7.106;2023-06-19T12:13:22;100412.78;;;23.97;77.25
80198;BME280;69517;52.030;7.106;2023-06-19T12:15:48;100401.50;;;23.95;77.61
80198;BME280;69517;52.030;7.106;2023-06-19T12:18:15;100407.63;;;23.95;77.26
80198;BME280;69517;52.030;7.106;2023-06-19T12:20:41;100401.50;;;23.95;77.42
80198;BME280;69517;52.030;7.106;2023-06-19T12:23:07;100411.09;;;23.96;77.27
80198;BME280;69517;52.030;7.106;2023-06-19T12:25:34;100407.63;;;23.95;77.52
80198;BME280;69517;52.030;7.106;2023-06-19T12:28:01;100408.56;;;23.94;77.30
80198;BME280;69517;52.030;7.106;2023-06-19T12:30:33;100409.41;;;23.95;77.45
80198;BME280;69517;52.030;7.106;2023-06-19T12:32:59;100406.66;;;23.96;77.17
80198;BME280;69517;52.030;7.106;2023-06-19T12:35:28;100408.44;;;23.96;77.28
80198;BME280;69517;52.030;7.106;2023-06-19T12:37:54;100403.16;;;23.96;77.20
80198;BME280;69517;52.030;7.106;2023-06-19T12:40:21;100404.13;;;23.95;76.98
80198;BME280;69517;52.030;7.106;2023-06-19T12:42:47;100402.34;;;23.95;77.08
80198;BME280;69517;52.030;7.106;2023-06-19T12:45:16;100407.50;;;23.97;77.09
80198;BME280;69517;52.030;7.106;2023-06-19T12:47:43;100409.00;;;23.99;76.77
80198;BME280;69517;52.030;7.106;2023-06-19T12:50:09;100414.16;;;24.01;76.82